Time;durP1;ratioP1;P1;durP2;ratioP2;P2;SDS_P1;SDS_P2;PMS_P1;PMS_P2;Temp;Humidity;BMP_temperature;BMP_pressure;BME280_temperature;BME280_humidity;BME280_pressure;Samples;Min_cycle;Max_cycle;Signal;HPM_P1;HPM_P2
2022/06/06 00:01:19;;;;;;;2.62;2.40;;;;;;;18.21;83.34;152229.97;1681905;85;21226;-59
2022/06/06 00:03:46;;;;;;;2.52;2.33;;;;;;;18.17;83.79;152219.53;1681893;85;21497;-59
2022/06/06 00:06:17;;;;;;;3.33;2.87;;;;;;;18.14;84.12;152213.03;1682050;84;21055;-59
2022/06/06 00:08:46;;;;;;;6.20;2.80;;;;;;;18.14;84.40;152211.72;1684043;84;21035;-59
2022/06/06 00:11:13;;;;;;;4.28;2.47;;;;;;;18.17;84.58;152219.53;1689963;83;21019;-58
2022/06/06 00:13:42;;;;;;;4.40;2.70;;;;;;;18.15;84.66;152215.66;1689682;84;21515;-58
2022/06/06 00:16:10;;;;;;;5.42;3.08;;;;;;;18.14;84.89;152211.72;1689819;84;21039;-58
2022/06/06 00:18:37;;;;;;;3.52;2.77;;;;;;;18.15;85.01;152214.31;1689806;84;21125;-58
2022/06/06 00:21:07;;;;;;;3.02;2.58;;;;;;;18.11;85.25;152205.17;1689771;84;20976;-58
2022/06/06 00:23:35;;;;;;;5.60;2.92;;;;;;;18.10;85.43;152201.28;1689751;84;21559;-58
2022/06/06 00:26:07;;;;;;;6.12;2.67;;;;;;;18.08;85.66;152196.08;1689685;84;21159;-59
2022/06/06 00:28:35;;;;;;;3.90;3.30;;;;;;;18.09;85.78;152198.69;1689775;84;21106;-59
2022/06/06 00:34:48;;;;;;;4.90;3.20;;;;;;;18.08;85.93;152196.08;1689928;84;20999;-59
2022/06/06 00:36:17;;;;;;;3.77;3.20;;;;;;;18.05;86.04;152189.53;1689817;84;21513;-59
2022/06/06 00:38:44;;;;;;;3.98;3.25;;;;;;;18.04;86.17;152186.92;1689668;84;22133;-59
2022/06/06 00:41:11;;;;;;;3.37;3.00;;;;;;;18.07;86.23;152193.47;1689812;84;21087;-59
2022/06/06 00:43:38;;;;;;;7.97;3.42;;;;;;;18.08;86.22;152197.36;1690055;84;21074;-59
2022/06/06 00:46:07;;;;;;;4.30;3.55;;;;;;;18.09;86.29;152199.95;1690054;83;20987;-59
2022/06/06 00:48:40;;;;;;;6.70;3.58;;;;;;;18.12;86.35;152206.50;1692478;84;21588;-59
2022/06/06 00:51:13;;;;;;;6.00;3.35;;;;;;;18.12;86.33;152206.50;1693022;83;21014;-58
2022/06/06 00:53:45;;;;;;;6.60;3.25;;;;;;;18.13;86.49;152209.11;1692662;84;21038;-58
2022/06/06 00:56:26;;;;;;;5.87;3.40;;;;;;;18.14;86.62;152211.72;1693220;83;21472;-59
2022/06/06 00:58:57;;;;;;;3.92;3.42;;;;;;;18.15;86.70;152215.66;1692993;83;21051;-60
2022/06/06 01:01:24;;;;;;;3.62;3.20;;;;;;;18.15;86.69;152214.31;1693035;84;21044;-59
2022/06/06 01:03:54;;;;;;;3.67;3.35;;;;;;;18.15;86.63;152214.31;1692877;84;21042;-59
2022/06/06 01:06:22;;;;;;;4.67;3.10;;;;;;;18.15;86.57;152214.31;1692993;84;21576;-60
2022/06/06 01:08:50;;;;;;;5.45;3.22;;;;;;;18.16;86.52;152218.25;1692951;84;21011;-60
2022/06/06 01:11:18;;;;;;;3.15;2.85;;;;;;;18.17;86.31;152219.53;1692817;84;20995;-60
2022/06/06 01:13:45;;;;;;;5.00;3.00;;;;;;;18.18;86.17;152222.14;1692533;83;21356;-60
2022/06/06 01:16:53;;;;;;;5.30;3.17;;;;;;;18.17;86.09;152219.53;1692506;84;21508;-60
2022/06/06 01:19:54;;;;;;;3.90;3.10;;;;;;;18.17;86.09;152220.86;1692619;84;21004;-59
2022/06/06 01:22:41;;;;;;;5.17;3.50;;;;;;;18.17;85.98;152219.53;1692901;84;21046;-60
2022/06/06 01:25:52;;;;;;;4.08;3.20;;;;;;;18.14;86.13;152213.03;1692773;84;21059;-60
2022/06/06 01:28:40;;;;;;;5.42;3.35;;;;;;;18.14;86.35;152211.72;1692983;83;21102;-59
2022/06/06 01:31:12;;;;;;;5.15;3.10;;;;;;;18.11;86.68;152205.17;1692663;84;21213;-60
2022/06/06 01:33:58;;;;;;;3.92;3.25;;;;;;;18.12;86.74;152207.78;1692929;83;21008;-60
2022/06/06 01:36:29;;;;;;;5.50;3.40;;;;;;;18.13;86.76;152209.11;1693083;83;21118;-60
2022/06/06 01:38:58;;;;;;;5.83;3.22;;;;;;;18.12;86.64;152207.78;1692917;84;21035;-60
2022/06/06 01:41:33;;;;;;;4.37;3.12;;;;;;;18.13;86.73;152210.44;1667462;84;21511;-60
2022/06/06 01:44:10;;;;;;;4.45;3.25;;;;;;;18.14;86.72;152213.03;1677806;84;21209;-60
2022/06/06 01:46:38;;;;;;;4.30;3.10;;;;;;;18.14;86.54;152211.72;1673846;83;21093;-60
2022/06/06 01:49:07;;;;;;;3.58;3.00;;;;;;;18.14;86.50;152213.03;1685536;84;21059;-60
2022/06/06 01:51:35;;;;;;;3.92;3.27;;;;;;;18.18;86.25;152222.14;1685020;83;21051;-60
2022/06/06 01:54:02;;;;;;;6.95;3.12;;;;;;;18.18;86.34;152222.14;1684897;85;21043;-60
2022/06/06 01:56:35;;;;;;;4.17;2.87;;;;;;;18.19;86.30;152224.75;1684883;83;21205;-60
2022/06/06 01:59:02;;;;;;;4.90;3.15;;;;;;;18.17;86.27;152220.86;1684722;83;21008;-60
2022/06/06 02:01:30;;;;;;;3.40;2.90;;;;;;;18.17;86.42;152219.53;1684997;83;21722;-59
2022/06/06 02:03:57;;;;;;;7.70;3.45;;;;;;;18.18;86.60;152223.47;1684829;83;21130;-59
2022/06/06 02:06:24;;;;;;;4.20;3.40;;;;;;;18.21;86.20;152229.97;1684974;85;21063;-60
2022/06/06 02:08:51;;;;;;;3.80;3.00;;;;;;;18.22;85.78;152232.56;1684881;83;21235;-59
2022/06/06 02:11:18;;;;;;;3.87;3.22;;;;;;;18.25;85.66;152239.11;1684834;85;21087;-60
2022/06/06 02:13:47;;;;;;;4.60;3.20;;;;;;;18.25;85.23;152240.44;1684903;84;21055;-60
2022/06/06 02:16:14;;;;;;;3.33;2.87;;;;;;;18.25;85.04;152240.44;1685203;85;21452;-59
2022/06/06 02:18:41;;;;;;;4.65;3.12;;;;;;;18.26;84.98;152243.03;1685018;83;21023;-59
2022/06/06 02:21:08;;;;;;;5.28;3.08;;;;;;;18.30;84.65;152252.14;1684992;85;21470;-59
2022/06/06 02:23:35;;;;;;;7.28;3.12;;;;;;;18.30;84.47;152253.47;1684826;83;21457;-59
2022/06/06 02:26:02;;;;;;;7.78;3.22;;;;;;;18.32;84.32;152258.69;1684774;83;21537;-59
2022/06/06 02:28:30;;;;;;;9.33;3.35;;;;;;;18.33;84.15;152259.97;1684898;84;21008;-59
2022/06/06 02:30:57;;;;;;;4.60;3.10;;;;;;;18.35;83.71;152263.91;1684884;85;21098;-59
2022/06/06 02:33:25;;;;;;;4.00;2.60;;;;;;;18.33;83.54;152261.28;1684858;85;21200;-59
2022/06/06 02:35:53;;;;;;;5.37;2.80;;;;;;;18.37;83.25;152270.44;1684659;85;21076;-59
2022/06/06 02:38:21;;;;;;;6.08;2.90;;;;;;;18.38;83.03;152273.05;1684819;84;21054;-59
2022/06/06 02:40:48;;;;;;;3.80;2.70;;;;;;;18.40;82.80;152278.27;1684589;83;21119;-59
2022/06/06 02:43:18;;;;;;;3.83;2.65;;;;;;;18.43;82.47;152286.09;1684633;84;21054;-60
2022/06/06 02:45:46;;;;;;;4.08;2.60;;;;;;;18.45;82.20;152289.97;1684604;83;21520;-58
2022/06/06 02:48:13;;;;;;;5.28;2.85;;;;;;;18.47;82.18;152296.52;1686687;84;21078;-60
2022/06/06 02:50:42;;;;;;;4.85;2.75;;;;;;;18.55;81.98;152314.77;1689792;83;21037;-59
2022/06/06 02:53:10;;;;;;;4.35;2.90;;;;;;;18.57;81.56;152321.31;1689601;84;21133;-60
2022/06/06 02:55:38;;;;;;;4.55;2.85;;;;;;;18.60;81.33;152329.13;1689522;84;21527;-60
2022/06/06 02:58:05;;;;;;;5.22;2.65;;;;;;;18.65;81.19;152340.89;1689646;83;21307;-60
2022/06/06 03:00:33;;;;;;;4.55;2.60;;;;;;;18.68;81.07;152347.38;1689430;84;21055;-59
2022/06/06 03:03:02;;;;;;;3.80;2.50;;;;;;;18.70;81.02;152352.64;1689507;84;21094;-60
2022/06/06 03:05:49;;;;;;;3.00;2.70;;;;;;;18.73;80.76;152360.47;1689573;84;21062;-59
2022/06/06 03:08:49;;;;;;;4.65;2.67;;;;;;;18.77;80.61;152370.91;1675491;83;21071;-59
2022/06/06 03:11:44;;;;;;;4.00;2.77;;;;;;;18.78;80.43;152373.50;1679819;84;21307;-59
2022/06/06 03:14:44;;;;;;;5.72;2.47;;;;;;;18.81;80.40;152381.33;1689633;83;21114;-60
2022/06/06 03:20:48;;;;;;;5.05;2.20;;;;;;;18.87;80.26;152396.97;1668138;84;21102;-60
2022/06/06 03:23:32;;;;;;;3.73;2.00;;;;;;;18.94;79.27;152412.67;1689891;84;20947;-59
2022/06/06 03:26:41;;;;;;;3.65;2.52;;;;;;;18.96;78.86;152417.89;1689230;84;21452;-59
2022/06/06 03:29:35;;;;;;;4.12;2.27;;;;;;;18.98;78.46;152423.11;1689619;84;21007;-60
2022/06/06 03:32:33;;;;;;;4.65;2.35;;;;;;;19.00;78.16;152428.38;1689631;84;21039;-61
2022/06/06 03:35:21;;;;;;;4.55;2.40;;;;;;;18.98;77.95;152423.11;1689719;84;21050;-60
2022/06/06 03:38:11;;;;;;;4.65;2.55;;;;;;;18.99;78.06;152427.05;1689957;84;21460;-61
2022/06/06 03:40:56;;;;;;;3.62;2.20;;;;;;;18.98;77.85;152423.11;1689971;84;21239;-59
2022/06/06 03:43:35;;;;;;;2.90;2.37;;;;;;;18.97;77.79;152420.50;1689851;84;21047;-60
2022/06/06 03:46:29;;;;;;;3.45;2.50;;;;;;;18.96;77.60;152417.89;1686402;84;21043;-61
2022/06/06 03:49:07;;;;;;;3.40;2.30;;;;;;;19.00;77.69;152428.38;1690769;83;21050;-60
2022/06/06 03:51:59;;;;;;;3.12;2.20;;;;;;;19.04;77.39;152438.81;1691935;84;21050;-59
2022/06/06 03:54:48;;;;;;;3.85;2.20;;;;;;;19.04;77.22;152440.13;1691690;84;21238;-59
2022/06/06 03:57:23;;;;;;;4.03;2.52;;;;;;;19.02;76.95;152433.59;1691711;83;21008;-60
2022/06/06 03:59:54;;;;;;;4.80;2.30;;;;;;;18.99;76.72;152425.77;1665832;84;21090;-59
2022/06/06 04:02:31;;;;;;;4.35;2.20;;;;;;;18.98;76.97;152423.11;1691637;83;21567;-59
2022/06/06 04:05:06;;;;;;;4.15;2.20;;;;;;;18.99;77.05;152425.77;1691692;83;21076;-59
2022/06/06 04:07:33;;;;;;;5.00;2.60;;;;;;;19.01;76.72;152432.31;1692087;84;21834;-59
2022/06/06 04:10:01;;;;;;;3.45;2.25;;;;;;;19.00;76.62;152428.38;1691577;83;21118;-59
2022/06/06 04:12:54;;;;;;;2.92;2.40;;;;;;;18.98;76.65;152423.11;1691695;84;21607;-59
2022/06/06 04:15:35;;;;;;;4.12;2.40;;;;;;;18.98;76.74;152423.11;1690886;84;21035;-59
2022/06/06 04:18:48;;;;;;;3.87;2.10;;;;;;;18.97;76.84;152420.50;1691566;84;21119;-60
2022/06/06 04:21:23;;;;;;;4.22;2.20;;;;;;;18.99;76.88;152425.77;1691986;84;21862;-60
2022/06/06 04:24:18;;;;;;;2.50;2.30;;;;;;;18.99;76.67;152425.77;1691548;84;21456;-60
2022/06/06 04:27:30;;;;;;;5.37;2.12;;;;;;;18.98;76.79;152423.11;1691517;84;21052;-60
2022/06/06 04:30:05;;;;;;;2.45;2.12;;;;;;;19.00;76.59;152428.38;1575903;90;21109;-59
2022/06/06 04:32:53;;;;;;;2.70;2.20;;;;;;;18.95;76.66;152416.56;1660720;83;21094;-59
2022/06/06 04:35:48;;;;;;;3.65;2.22;;;;;;;18.96;76.79;152419.17;1691722;83;21297;-61
2022/06/06 04:38:41;;;;;;;4.12;2.40;;;;;;;18.95;76.83;152415.28;1691737;84;21016;-61
2022/06/06 04:41:35;;;;;;;4.28;2.40;;;;;;;18.95;77.14;152415.28;1691739;84;21605;-59
2022/06/06 04:44:18;;;;;;;2.65;2.35;;;;;;;18.98;77.27;152423.11;1678031;84;21595;-60
2022/06/06 04:46:50;;;;;;;4.60;3.37;;;;;;;18.99;77.37;152425.77;1691361;83;21138;-59
2022/06/06 04:49:18;;;;;;;3.95;2.20;;;;;;;19.00;77.57;152428.38;1691446;84;21261;-59
2022/06/06 04:51:45;;;;;;;3.10;2.30;;;;;;;19.03;77.57;152436.20;1691395;84;21022;-60
2022/06/06 04:54:15;;;;;;;5.15;2.47;;;;;;;19.03;77.65;152437.53;1691448;84;21078;-60
2022/06/06 04:56:44;;;;;;;5.72;2.37;;;;;;;19.03;77.86;152436.20;1691354;83;21129;-60
2022/06/06 04:59:11;;;;;;;5.55;2.55;;;;;;;19.06;77.91;152442.75;1691529;84;21102;-60
2022/06/06 05:01:39;;;;;;;4.50;2.70;;;;;;;19.09;77.99;152450.56;1691468;84;21615;-61
2022/06/06 05:04:06;;;;;;;4.08;2.62;;;;;;;19.10;78.14;152454.45;1691293;84;20955;-60
2022/06/06 05:07:12;;;;;;;5.58;2.47;;;;;;;19.12;78.32;152459.72;1691194;83;21066;-60
2022/06/06 05:10:30;;;;;;;4.22;2.20;;;;;;;19.18;78.31;152474.03;1672823;84;21069;-59
2022/06/06 05:13:36;;;;;;;3.33;2.40;;;;;;;19.23;78.08;152487.13;1663326;86;21065;-60
2022/06/06 05:16:14;;;;;;;4.15;2.90;;;;;;;19.23;78.11;152485.80;1663258;86;21309;-60
2022/06/06 05:19:28;;;;;;;6.87;3.10;;;;;;;19.26;78.16;152493.63;1663225;86;21058;-60
2022/06/06 05:22:24;;;;;;;3.80;3.12;;;;;;;19.27;78.10;152497.56;1628362;88;21060;-60
2022/06/06 05:25:09;;;;;;;3.67;2.92;;;;;;;19.25;77.75;152491.02;1601120;89;21156;-58
2022/06/06 05:28:09;;;;;;;3.45;2.50;;;;;;;19.27;77.53;152496.23;1601598;88;21041;-60
2022/06/06 05:30:53;;;;;;;5.67;2.72;;;;;;;19.30;77.46;152504.06;1601739;89;21160;-61
2022/06/06 05:33:33;;;;;;;3.95;2.60;;;;;;;19.33;77.35;152511.89;1602003;88;21008;-61
2022/06/06 05:36:14;;;;;;;4.67;3.20;;;;;;;19.41;77.40;152531.48;1601838;88;21539;-59
2022/06/06 05:39:09;;;;;;;4.42;2.67;;;;;;;19.45;76.89;152541.91;1601776;89;21554;-59
2022/06/06 05:41:59;;;;;;;3.20;2.70;;;;;;;19.48;76.17;152549.78;1602073;89;21096;-61
2022/06/06 05:45:05;;;;;;;5.45;2.55;;;;;;;19.52;75.98;152558.91;1601661;88;21252;-57
2022/06/06 05:48:10;;;;;;;5.55;2.70;;;;;;;19.60;75.45;152581.09;1601769;88;21474;-60
2022/06/06 05:51:17;;;;;;;4.83;3.05;;;;;;;19.65;74.56;152591.53;1619338;87;21085;-58
2022/06/06 05:54:01;;;;;;;4.47;2.50;;;;;;;19.63;74.06;152587.64;1620071;88;21048;-60
2022/06/06 05:57:06;;;;;;;4.95;3.02;;;;;;;19.67;73.34;152596.75;1622783;86;21656;-59
2022/06/06 06:00:05;;;;;;;3.52;2.90;;;;;;;19.65;72.82;152592.86;1656995;85;21695;-60
2022/06/06 06:02:59;;;;;;;4.67;3.30;;;;;;;19.63;72.77;152587.64;1658623;86;21596;-60
2022/06/06 06:05:43;;;;;;;6.83;2.47;;;;;;;19.63;72.29;152587.64;1659799;86;21025;-60
2022/06/06 06:08:50;;;;;;;7.05;2.85;;;;;;;19.65;72.05;152592.86;1658876;86;21025;-60
2022/06/06 06:11:41;;;;;;;5.67;2.75;;;;;;;19.72;71.92;152609.84;1646542;87;21051;-61
2022/06/06 06:14:35;;;;;;;4.92;2.70;;;;;;;19.82;71.63;152635.94;1646530;87;21257;-61
2022/06/06 06:17:03;;;;;;;8.15;2.83;;;;;;;19.82;71.31;152634.66;1646515;87;21007;-60
2022/06/06 06:19:51;;;;;;;3.75;2.50;;;;;;;19.87;71.28;152647.70;1646611;87;21569;-60
2022/06/06 06:22:18;;;;;;;4.37;2.47;;;;;;;19.91;70.64;152658.19;1654770;85;21057;-60
2022/06/06 06:24:46;;;;;;;4.75;2.77;;;;;;;19.87;70.14;152648.98;1655782;86;21105;-59
2022/06/06 06:27:13;;;;;;;3.17;2.42;;;;;;;19.92;70.07;152659.53;1644375;85;21517;-61
2022/06/06 06:29:40;;;;;;;4.53;2.40;;;;;;;19.95;69.12;152668.62;1643440;85;21141;-61
2022/06/06 06:32:55;;;;;;;6.25;2.52;;;;;;;19.98;68.83;152676.47;1642531;86;21041;-61
2022/06/06 06:35:58;;;;;;;7.83;2.87;;;;;;;20.02;68.51;152686.95;1571533;88;21639;-61
2022/06/06 06:39:03;;;;;;;6.30;2.50;;;;;;;20.04;68.17;152692.17;1580573;89;21072;-59
2022/06/06 06:42:07;;;;;;;5.75;2.50;;;;;;;20.05;67.73;152693.45;1645790;86;21820;-60
2022/06/06 06:44:40;;;;;;;4.47;2.42;;;;;;;20.07;67.14;152698.67;1646560;85;21156;-60
2022/06/06 06:47:29;;;;;;;4.37;2.55;;;;;;;20.11;66.83;152707.83;1640292;87;21077;-60
2022/06/06 06:50:16;;;;;;;5.35;2.47;;;;;;;20.11;66.96;152709.11;1639876;87;21033;-60
2022/06/06 06:53:12;;;;;;;6.22;2.25;;;;;;;20.11;66.53;152707.83;1635854;87;21056;-60
2022/06/06 06:55:57;;;;;;;3.77;2.67;;;;;;;20.11;66.30;152709.11;1640049;85;21261;-60
2022/06/06 06:58:49;;;;;;;2.58;2.20;;;;;;;20.11;66.00;152709.11;1646452;86;21103;-60
2022/06/06 07:08:35;;;;;;;6.15;2.60;;;;;;;20.14;66.43;152715.66;1649855;86;21439;-60
2022/06/06 07:11:45;;;;;;;4.80;2.52;;;;;;;20.16;66.77;152722.22;1645850;86;21533;-61
2022/06/06 07:14:46;;;;;;;4.87;2.45;;;;;;;20.18;66.45;152727.44;1564014;88;21101;-60
2022/06/06 07:17:14;;;;;;;4.90;2.30;;;;;;;20.23;66.42;152739.20;1682025;83;20937;-61
2022/06/06 07:19:51;;;;;;;4.37;2.60;;;;;;;20.30;66.22;152756.14;1682021;83;21037;-60
2022/06/06 07:22:19;;;;;;;4.67;2.30;;;;;;;20.37;65.88;152774.47;1648097;86;21112;-61
2022/06/06 07:24:51;;;;;;;9.05;2.50;;;;;;;20.44;65.71;152791.41;1681936;85;21438;-60
2022/06/06 07:31:17;;;;;;;4.20;2.50;;;;;;;20.52;65.18;152811.00;1734103;82;21504;-63
2022/06/06 07:34:04;;;;;;;9.05;2.60;;;;;;;20.57;64.53;152824.11;1745905;81;21116;-63
2022/06/06 07:37:01;;;;;;;4.45;2.65;;;;;;;20.61;64.24;152835.84;1732942;79;21051;-64
2022/06/06 07:39:43;;;;;;;6.25;2.72;;;;;;;20.62;63.64;152837.17;1750524;81;21666;-64
2022/06/06 07:42:30;;;;;;;2.90;2.50;;;;;;;20.67;63.96;152848.89;1793447;79;21123;-64
2022/06/06 07:45:37;;;;;;;4.42;2.60;;;;;;;20.80;63.21;152881.66;1806953;78;21000;-64
2022/06/06 07:48:34;;;;;;;3.20;2.10;;;;;;;20.83;62.79;152890.77;1789699;79;21380;-64
2022/06/06 07:51:27;;;;;;;5.42;2.55;;;;;;;20.94;63.08;152916.92;1796038;79;21443;-65
2022/06/06 07:54:18;;;;;;;6.25;2.52;;;;;;;21.07;62.31;152950.88;1795553;79;21301;-63
2022/06/06 07:57:10;;;;;;;7.03;2.80;;;;;;;21.10;61.54;152958.70;1799579;79;20901;-64
2022/06/06 08:00:05;;;;;;;6.03;2.62;;;;;;;21.14;61.81;152967.88;1797296;79;21056;-64
2022/06/06 08:03:28;;;;;;;6.33;3.08;;;;;;;21.18;62.12;152979.66;1728939;82;21020;-64
2022/06/06 08:06:16;;;;;;;6.90;2.95;;;;;;;21.23;61.22;152991.42;1800929;79;20952;-63
2022/06/06 08:09:06;;;;;;;5.55;2.70;;;;;;;21.32;60.89;153013.61;1799702;79;21196;-63
2022/06/06 08:12:04;;;;;;;5.53;2.50;;;;;;;21.32;60.26;153013.61;1810477;78;21027;-63
2022/06/06 08:15:03;;;;;;;3.55;2.30;;;;;;;21.28;59.57;153003.16;1826135;78;20988;-63
2022/06/06 08:17:42;;;;;;;7.05;2.67;;;;;;;21.27;59.46;153001.88;1808993;78;21440;-64
2022/06/06 08:20:48;;;;;;;5.05;2.67;;;;;;;21.30;59.30;153008.38;1766934;81;21070;-64
2022/06/06 08:23:15;;;;;;;3.08;2.47;;;;;;;21.30;59.09;153009.72;1760274;81;21252;-64
2022/06/06 08:25:43;;;;;;;4.60;2.33;;;;;;;21.38;58.73;153029.33;1802456;78;21535;-64
2022/06/06 08:28:10;;;;;;;6.72;2.62;;;;;;;21.46;58.79;153050.22;1811132;78;20965;-63
2022/06/06 08:30:38;;;;;;;4.70;2.27;;;;;;;21.51;58.16;153060.67;1795540;78;21130;-64
2022/06/06 08:33:05;;;;;;;4.37;2.60;;;;;;;21.53;58.73;153067.22;1796002;79;21413;-63
2022/06/06 08:36:05;;;;;;;7.83;2.45;;;;;;;21.57;58.38;153077.67;1771019;81;21468;-63
2022/06/06 08:38:47;;;;;;;5.78;2.70;;;;;;;21.59;57.26;153081.63;1755711;81;21079;-64
2022/06/06 08:41:40;;;;;;;5.42;2.45;;;;;;;21.61;57.42;153086.84;1738968;81;21152;-63
2022/06/06 08:44:29;;;;;;;6.10;2.40;;;;;;;21.77;57.61;153126.08;1703672;82;22414;-58
2022/06/06 08:47:20;;;;;;;7.03;2.52;;;;;;;21.95;57.55;153171.87;1758106;79;21103;-64
2022/06/06 08:53:46;;;;;;;2.62;2.10;;;;;;;22.12;56.70;153216.34;1679922;85;21024;-65
2022/06/06 08:56:41;;;;;;;4.45;2.20;;;;;;;22.18;56.34;153232.03;1737140;82;21041;-64
2022/06/06 08:59:31;;;;;;;3.45;2.30;;;;;;;22.24;56.67;153246.44;1779054;79;21024;-64
2022/06/06 09:02:47;;;;;;;4.85;2.20;;;;;;;22.28;56.78;153255.55;1771240;79;21083;-64
2022/06/06 09:05:45;;;;;;;4.15;2.40;;;;;;;22.32;56.71;153267.33;1768554;81;22160;-63
2022/06/06 09:08:28;;;;;;;6.37;2.22;;;;;;;22.46;56.54;153301.36;1748909;81;21551;-63
2022/06/06 09:11:21;;;;;;;7.92;2.12;;;;;;;22.55;55.98;153323.66;1721980;82;21410;-64
2022/06/06 09:14:11;;;;;;;7.15;1.90;;;;;;;22.66;55.24;153352.41;1774585;79;21019;-64
2022/06/06 09:17:09;;;;;;;4.15;2.10;;;;;;;22.78;54.92;153382.50;1785191;79;21040;-64
2022/06/06 09:19:57;;;;;;;2.90;1.85;;;;;;;22.85;54.56;153400.80;1782275;79;21247;-64
2022/06/06 09:22:53;;;;;;;2.20;1.60;;;;;;;22.91;53.32;153413.91;1777951;79;21036;-63
2022/06/06 09:25:52;;;;;;;3.72;1.90;;;;;;;22.89;52.84;153411.30;1781172;79;20968;-63
2022/06/06 09:28:49;;;;;;;3.92;2.00;;;;;;;22.96;52.32;153426.98;1786991;79;20992;-64
2022/06/06 09:31:36;;;;;;;5.80;2.30;;;;;;;23.04;52.33;153449.23;1755272;80;21016;-64
2022/06/06 09:34:35;;;;;;;2.95;1.67;;;;;;;23.08;51.69;153458.36;1807334;78;21090;-63
2022/06/06 09:37:43;;;;;;;7.10;2.12;;;;;;;23.07;50.95;153455.75;1769403;80;21040;-64
2022/06/06 09:40:21;;;;;;;6.20;1.95;;;;;;;23.12;51.25;153467.53;1800759;78;21468;-64
2022/06/06 09:43:15;;;;;;;8.05;2.05;;;;;;;23.22;51.23;153492.41;1799770;78;21028;-65
2022/06/06 09:46:12;;;;;;;2.62;2.05;;;;;;;23.28;50.98;153508.14;1808733;79;21051;-64
2022/06/06 09:49:14;;;;;;;2.65;1.70;;;;;;;23.25;50.89;153500.25;1743910;81;21445;-64
2022/06/06 09:51:58;;;;;;;5.67;2.05;;;;;;;23.32;50.37;153518.61;1761043;81;21087;-63
2022/06/06 10:01:18;;;;;;;5.15;1.60;;;;;;;23.43;49.78;153547.42;1762738;81;21028;-62
2022/06/06 10:04:21;;;;;;;3.22;2.10;;;;;;;23.51;49.25;153565.72;1768103;80;21261;-64
2022/06/06 10:07:32;;;;;;;5.17;1.70;;;;;;;23.41;49.65;153540.86;1761375;81;21405;-64
2022/06/06 10:10:43;;;;;;;4.03;1.57;;;;;;;23.30;49.16;153513.38;1764415;80;21541;-64
2022/06/06 10:13:36;;;;;;;2.00;1.62;;;;;;;23.24;49.24;153497.64;1763186;81;21095;-64
2022/06/06 10:16:41;;;;;;;3.77;1.80;;;;;;;23.21;48.81;153489.78;1730932;82;21050;-64
2022/06/06 10:19:34;;;;;;;5.78;2.10;;;;;;;23.22;49.37;153492.41;1731179;82;21119;-58
2022/06/06 10:22:32;;;;;;;4.50;1.95;;;;;;;23.30;49.70;153513.38;1729820;82;21119;-59
2022/06/06 10:25:13;;;;;;;3.37;1.67;;;;;;;23.30;49.90;153513.38;1728737;82;21064;-58
2022/06/06 10:28:22;;;;;;;6.37;2.00;;;;;;;23.39;50.08;153536.97;1747330;81;21012;-57
2022/06/06 10:31:14;;;;;;;4.33;1.70;;;;;;;23.51;49.69;153565.72;1763328;80;20992;-63
2022/06/06 10:34:05;;;;;;;2.37;1.60;;;;;;;23.53;49.54;153570.95;1765628;80;21261;-64
2022/06/06 10:36:58;;;;;;;5.03;1.77;;;;;;;23.70;49.28;153614.19;1793126;79;20937;-63
2022/06/06 10:39:53;;;;;;;4.37;1.57;;;;;;;23.86;48.25;153654.75;1790586;79;20984;-64
2022/06/06 10:42:57;;;;;;;4.97;1.57;;;;;;;23.91;47.72;153667.84;1799375;79;20969;-64
2022/06/06 10:45:37;;;;;;;4.72;1.47;;;;;;;24.02;48.23;153695.38;1815329;78;20996;-64
2022/06/06 10:48:34;;;;;;;3.52;1.70;;;;;;;24.11;47.67;153717.64;1797853;78;20964;-64
2022/06/06 10:51:42;;;;;;;5.15;1.57;;;;;;;24.12;46.68;153720.25;1793695;79;20984;-63
2022/06/06 10:55:01;;;;;;;2.45;1.52;;;;;;;24.09;47.29;153712.41;1793749;78;21024;-65
2022/06/06 10:57:58;;;;;;;1.90;1.50;;;;;;;24.09;47.54;153712.41;1785199;79;21031;-64
2022/06/06 11:00:56;;;;;;;2.02;1.40;;;;;;;24.21;47.70;153743.86;1804257;78;20981;-63
2022/06/06 11:03:49;;;;;;;4.58;1.65;;;;;;;24.24;46.82;153751.70;1796884;79;21840;-64
2022/06/06 11:06:47;;;;;;;3.75;1.67;;;;;;;24.17;47.05;153733.34;1804425;78;20864;-63
2022/06/06 11:09:38;;;;;;;2.92;1.60;;;;;;;24.22;47.32;153746.47;1812313;78;20997;-63
2022/06/06 11:12:40;;;;;;;3.67;1.60;;;;;;;24.31;46.91;153770.03;1800379;79;21400;-65
2022/06/06 11:15:07;;;;;;;2.72;1.70;;;;;;;24.33;45.86;153773.97;1799091;78;21071;-64
2022/06/06 11:18:05;;;;;;;2.08;1.60;;;;;;;24.42;45.28;153796.19;1771836;79;21200;-65
2022/06/06 11:21:02;;;;;;;2.40;1.70;;;;;;;24.52;44.97;153822.41;1773196;79;20932;-64
2022/06/06 11:23:59;;;;;;;3.58;1.52;;;;;;;24.67;44.25;153859.09;1765985;81;21032;-64
2022/06/06 11:26:34;;;;;;;3.17;1.60;;;;;;;24.73;43.89;153874.80;1802031;78;20993;-65
2022/06/06 11:29:25;;;;;;;1.82;1.42;;;;;;;24.65;43.85;153855.14;1784160;79;20932;-66
2022/06/06 11:32:21;;;;;;;1.70;1.47;;;;;;;24.60;42.78;153843.34;1798931;78;22150;-65
2022/06/06 11:35:04;;;;;;;1.90;1.70;;;;;;;24.50;42.85;153817.17;1797138;78;20948;-64
2022/06/06 11:38:08;;;;;;;4.70;1.77;;;;;;;24.42;43.59;153796.19;1796252;79;21024;-65
2022/06/06 11:41:03;;;;;;;2.75;1.62;;;;;;;24.51;43.40;153818.45;1799609;78;20945;-65
2022/06/06 11:43:39;;;;;;;3.60;1.60;;;;;;;24.62;43.09;153847.30;1791751;78;21040;-65
2022/06/06 11:46:45;;;;;;;1.72;1.27;;;;;;;24.67;42.52;153859.09;1779538;78;21245;-65
2022/06/06 11:49:55;;;;;;;3.72;1.50;;;;;;;24.71;42.53;153869.56;1797480;79;21043;-65
2022/06/06 11:52:56;;;;;;;2.30;1.52;;;;;;;24.67;42.42;153859.09;1795295;78;20920;-65
2022/06/06 11:56:18;;;;;;;2.67;1.35;;;;;;;24.60;42.79;153843.34;1797745;79;21047;-64
2022/06/06 11:58:53;;;;;;;5.42;1.50;;;;;;;24.61;42.68;153845.95;1815323;78;20980;-65
2022/06/06 12:01:41;;;;;;;2.87;1.45;;;;;;;24.69;43.07;153864.33;1779291;78;22062;-65
2022/06/06 12:04:34;;;;;;;3.15;1.67;;;;;;;24.63;42.97;153848.58;1796368;78;21035;-64
2022/06/06 12:07:35;;;;;;;2.17;1.70;;;;;;;24.61;43.44;153845.95;1778161;79;21555;-65
2022/06/06 12:10:26;;;;;;;2.47;1.40;;;;;;;24.70;43.53;153866.95;1790074;79;21028;-64
2022/06/06 12:13:30;;;;;;;2.72;1.60;;;;;;;24.76;42.92;153882.70;1795608;79;20920;-65
2022/06/06 12:16:21;;;;;;;3.27;1.55;;;;;;;24.84;42.59;153903.64;1798191;79;22165;-65
2022/06/06 12:19:10;;;;;;;1.80;1.65;;;;;;;24.92;41.82;153922.02;1781187;79;21063;-64
2022/06/06 12:22:27;;;;;;;2.10;1.40;;;;;;;24.93;42.00;153924.63;1796633;78;21086;-65
2022/06/06 12:25:26;;;;;;;3.37;1.50;;;;;;;25.01;41.66;153945.56;1784490;79;21062;-64
2022/06/06 12:28:16;;;;;;;1.85;1.30;;;;;;;25.09;41.65;153966.56;1799633;79;20963;-64
2022/06/06 12:31:37;;;;;;;1.60;1.50;;;;;;;25.22;40.94;153997.97;1762498;81;22175;-65
2022/06/06 12:34:33;;;;;;;3.15;1.50;;;;;;;25.27;40.07;154012.41;1752477;81;21489;-65
2022/06/06 12:37:27;;;;;;;1.95;1.32;;;;;;;25.33;40.03;154026.83;1725566;82;21060;-65
2022/06/06 12:40:22;;;;;;;1.90;1.60;;;;;;;25.33;40.22;154026.83;1738238;81;21106;-65
2022/06/06 12:43:12;;;;;;;2.25;1.30;;;;;;;25.31;40.32;154022.87;1736922;81;21421;-65
2022/06/06 12:46:04;;;;;;;2.83;1.50;;;;;;;25.36;39.94;154034.67;1732174;81;21160;-65
2022/06/06 12:48:51;;;;;;;2.72;1.30;;;;;;;25.39;40.04;154041.20;1737760;81;21453;-64
2022/06/06 12:51:32;;;;;;;5.17;1.60;;;;;;;25.37;40.22;154035.97;1768608;79;21074;-64
2022/06/06 12:54:36;;;;;;;4.03;1.72;;;;;;;25.33;40.14;154026.83;1766698;79;21493;-65
2022/06/06 12:57:02;;;;;;;3.27;1.40;;;;;;;25.28;40.75;154013.69;1764042;81;20996;-65
2022/06/06 12:59:43;;;;;;;3.37;1.62;;;;;;;25.30;40.59;154018.92;1763338;80;21135;-64
2022/06/06 13:02:32;;;;;;;3.08;1.70;;;;;;;25.36;40.37;154033.34;1717812;82;21008;-64
2022/06/06 13:05:24;;;;;;;3.65;1.70;;;;;;;25.37;40.13;154035.97;1772382;80;21055;-64
2022/06/06 13:08:47;;;;;;;3.65;1.77;;;;;;;25.36;40.30;154034.67;1771122;79;21069;-65
2022/06/06 13:11:50;;;;;;;2.00;1.60;;;;;;;25.42;40.33;154050.39;1768701;80;21035;-64
2022/06/06 13:14:37;;;;;;;2.42;1.52;;;;;;;25.40;39.95;154045.16;1735060;82;21296;-64
2022/06/06 13:17:39;;;;;;;7.80;1.98;;;;;;;25.37;40.24;154037.30;1773511;80;21035;-64